createdAt,value
2023-05-20T00:01:22.769Z,5.78
2023-05-20T00:04:08.716Z,6.60
2023-05-20T00:06:54.914Z,6.00
2023-05-20T00:09:40.696Z,6.70
2023-05-20T00:12:26.370Z,6.32
2023-05-20T00:15:14.873Z,6.03
2023-05-20T00:18:01.651Z,7.05
2023-05-20T00:20:47.253Z,6.47
2023-05-20T00:23:32.996Z,6.40
2023-05-20T00:26:21.401Z,7.20
2023-05-20T00:29:06.991Z,6.57
2023-05-20T00:31:52.627Z,6.97
2023-05-20T00:34:39.662Z,6.20
2023-05-20T00:37:26.239Z,7.20
2023-05-20T00:40:14.160Z,8.52
2023-05-20T00:43:01.519Z,7.18
2023-05-20T00:45:47.700Z,6.40
2023-05-20T00:48:42.243Z,6.63
2023-05-20T00:51:27.665Z,7.32
2023-05-20T00:54:13.168Z,7.60
2023-05-20T00:56:59.524Z,6.60
2023-05-20T00:59:45.130Z,7.43
2023-05-20T01:02:31.253Z,7.60
2023-05-20T01:05:16.650Z,7.38
2023-05-20T01:08:02.680Z,7.50
2023-05-20T01:10:56.172Z,6.55
2023-05-20T01:13:47.933Z,7.05
2023-05-20T01:16:35.483Z,7.15
2023-05-20T01:19:44.557Z,7.72
2023-05-20T01:22:30.398Z,7.35
2023-05-20T01:25:15.854Z,6.90
2023-05-20T01:28:01.842Z,7.85
2023-05-20T01:30:52.343Z,7.05
2023-05-20T01:33:40.058Z,6.72
2023-05-20T01:36:27.749Z,6.47
2023-05-20T01:39:14.199Z,6.95
2023-05-20T01:42:02.224Z,7.30
2023-05-20T01:44:48.073Z,7.90
2023-05-20T01:47:33.767Z,7.00
2023-05-20T01:50:19.171Z,7.20
2023-05-20T01:53:04.645Z,7.80
2023-05-20T01:55:50.353Z,7.97
2023-05-20T01:58:35.786Z,7.80
2023-05-20T02:01:21.277Z,9.50
2023-05-20T02:04:06.890Z,7.43
2023-05-20T02:06:52.474Z,7.72
2023-05-20T02:09:38.121Z,7.38
2023-05-20T02:12:23.294Z,8.30
2023-05-20T02:15:09.317Z,8.38
2023-05-20T02:17:54.992Z,8.30
2023-05-20T02:20:41.235Z,7.15
2023-05-20T02:23:27.098Z,7.88
2023-05-20T02:26:12.531Z,7.90
2023-05-20T02:28:58.060Z,8.40
2023-05-20T02:31:43.469Z,7.55
2023-05-20T02:34:30.379Z,7.40
2023-05-20T02:37:15.984Z,8.32
2023-05-20T02:40:01.338Z,7.50
2023-05-20T02:42:47.190Z,7.68
2023-05-20T02:45:32.657Z,7.63
2023-05-20T02:48:18.286Z,8.48
2023-05-20T02:51:03.798Z,9.73
2023-05-20T02:53:49.351Z,7.70
2023-05-20T02:56:34.950Z,7.82
2023-05-20T02:59:20.248Z,9.18
2023-05-20T03:02:05.764Z,8.02
2023-05-20T03:04:54.034Z,8.57
2023-05-20T03:07:39.654Z,8.13
2023-05-20T03:10:25.279Z,7.65
2023-05-20T03:13:11.624Z,8.50
2023-05-20T03:15:57.288Z,8.07
2023-05-20T03:18:43.047Z,8.82
2023-05-20T03:21:29.224Z,7.95
2023-05-20T03:24:15.096Z,8.48
2023-05-20T03:27:00.808Z,9.32
2023-05-20T03:29:45.970Z,7.70
2023-05-20T03:32:31.492Z,7.75
2023-05-20T03:35:16.915Z,9.95
2023-05-20T03:38:02.584Z,8.90
2023-05-20T03:40:48.086Z,8.63
2023-05-20T03:43:33.647Z,7.80
2023-05-20T03:46:19.471Z,8.45
2023-05-20T03:49:06.145Z,7.85
2023-05-20T03:51:51.744Z,8.57
2023-05-20T03:54:37.452Z,8.77
2023-05-20T03:57:23.185Z,7.97
2023-05-20T04:00:14.455Z,9.23
2023-05-20T04:03:00.593Z,8.68
2023-05-20T04:05:46.270Z,9.18
2023-05-20T04:08:31.902Z,9.23
2023-05-20T04:11:17.533Z,10.50
2023-05-20T04:14:03.023Z,9.82
2023-05-20T04:16:50.329Z,9.88
2023-05-20T04:19:36.277Z,8.98
2023-05-20T04:22:21.647Z,9.60
2023-05-20T04:25:07.830Z,9.23
2023-05-20T04:27:54.292Z,10.38
2023-05-20T04:30:39.868Z,9.32
2023-05-20T04:33:26.665Z,10.07
2023-05-20T04:36:16.362Z,10.02
2023-05-20T04:39:03.665Z,10.85
2023-05-20T04:41:49.274Z,9.48
2023-05-20T04:48:57.164Z,11.32
2023-05-20T04:51:43.871Z,11.75
2023-05-20T04:54:30.005Z,10.68
2023-05-20T04:57:15.358Z,10.50
2023-05-20T05:00:01.212Z,11.13
2023-05-20T05:02:47.702Z,11.20
2023-05-20T05:05:34.531Z,10.35
2023-05-20T05:08:19.954Z,10.60
2023-05-20T05:11:06.879Z,9.80
2023-05-20T05:13:53.154Z,10.75
2023-05-20T05:16:38.379Z,10.55
2023-05-20T05:19:23.981Z,11.85
2023-05-20T05:22:09.613Z,11.93
2023-05-20T05:24:55.908Z,11.45
2023-05-20T05:27:41.599Z,9.73
2023-05-20T05:30:27.484Z,11.02
2023-05-20T05:33:14.990Z,10.13
2023-05-20T05:36:01.857Z,10.98
2023-05-20T05:38:47.383Z,10.55
2023-05-20T05:41:33.456Z,12.43
2023-05-20T05:44:18.940Z,10.93
2023-05-20T05:47:06.108Z,10.77
2023-05-20T05:49:51.859Z,11.77
2023-05-20T05:52:37.404Z,10.88
2023-05-20T05:55:24.040Z,10.95
2023-05-20T05:58:09.501Z,10.73
2023-05-20T06:00:55.249Z,10.20
2023-05-20T06:03:40.618Z,10.30
2023-05-20T06:06:27.244Z,10.50
2023-05-20T06:09:12.865Z,10.45
2023-05-20T06:11:58.327Z,10.88
2023-05-20T06:14:43.731Z,10.93
2023-05-20T06:17:29.355Z,10.68
2023-05-20T06:20:15.063Z,11.52
2023-05-20T06:23:00.935Z,11.38
2023-05-20T06:25:46.591Z,12.18
2023-05-20T06:28:31.929Z,9.40
2023-05-20T06:31:17.690Z,10.75
2023-05-20T06:34:03.568Z,10.93
2023-05-20T06:36:49.088Z,10.98
2023-05-20T06:39:34.618Z,11.00
2023-05-20T06:42:21.259Z,11.10
2023-05-20T06:45:07.263Z,11.95
2023-05-20T06:47:54.346Z,10.60
2023-05-20T06:50:40.126Z,12.55
2023-05-20T06:53:25.623Z,10.27
2023-05-20T06:56:11.511Z,10.68
2023-05-20T06:58:57.093Z,10.00
2023-05-20T07:01:42.600Z,9.95
2023-05-20T07:04:28.382Z,11.48
2023-05-20T07:07:14.960Z,11.60
2023-05-20T07:10:02.086Z,10.35
2023-05-20T07:12:47.489Z,11.65
2023-05-20T07:15:33.225Z,10.15
2023-05-20T07:18:19.334Z,10.48
2023-05-20T07:21:04.529Z,9.73
2023-05-20T07:23:50.144Z,10.40
2023-05-20T07:26:36.530Z,10.23
2023-05-20T07:29:21.955Z,11.25
2023-05-20T07:32:09.610Z,10.02
2023-05-20T07:34:54.921Z,9.82
2023-05-20T07:37:40.789Z,9.88
2023-05-20T07:40:26.481Z,8.57
2023-05-20T07:43:11.883Z,10.40
2023-05-20T07:45:57.470Z,8.80
2023-05-20T07:48:43.654Z,8.38
2023-05-20T07:51:28.737Z,9.23
2023-05-20T07:54:15.302Z,9.32
2023-05-20T07:57:01.077Z,9.50
2023-05-20T07:59:46.515Z,9.55
2023-05-20T08:02:31.914Z,8.75
2023-05-20T08:05:17.822Z,11.27
2023-05-20T08:08:03.272Z,8.98
2023-05-20T08:10:49.080Z,8.68
2023-05-20T08:13:34.864Z,7.45
2023-05-20T08:16:22.357Z,7.57
2023-05-20T08:19:08.001Z,8.70
2023-05-20T08:21:54.434Z,7.82
2023-05-20T08:24:40.155Z,8.50
2023-05-20T08:27:26.292Z,7.03
2023-05-20T08:30:17.486Z,6.68
2023-05-20T08:33:03.157Z,6.55
2023-05-20T08:35:48.940Z,7.00
2023-05-20T08:38:34.778Z,6.90
2023-05-20T08:41:25.134Z,8.02
2023-05-20T08:44:11.910Z,8.48
2023-05-20T08:46:58.054Z,7.70
2023-05-20T08:49:43.813Z,7.60
2023-05-20T08:52:34.781Z,6.72
2023-05-20T08:55:27.850Z,6.80
2023-05-20T09:01:01.007Z,5.68
2023-05-20T09:03:46.546Z,6.00
2023-05-20T09:06:43.751Z,7.55
2023-05-20T09:09:30.180Z,7.32
2023-05-20T09:12:16.086Z,6.75
2023-05-20T09:15:01.407Z,6.60
2023-05-20T09:17:50.217Z,7.78
2023-05-20T09:20:37.425Z,5.60
2023-05-20T09:23:22.886Z,7.45
2023-05-20T09:26:08.601Z,6.05
2023-05-20T09:28:55.740Z,5.82
2023-05-20T09:31:41.413Z,5.07
2023-05-20T09:34:27.030Z,5.85
2023-05-20T09:37:14.695Z,6.15
2023-05-20T09:40:10.079Z,6.38
2023-05-20T09:43:07.767Z,6.38
2023-05-20T09:45:55.518Z,5.45
2023-05-20T09:48:41.028Z,5.65
2023-05-20T09:51:29.671Z,5.95
2023-05-20T09:54:18.140Z,5.93
2023-05-20T09:57:04.947Z,4.97
2023-05-20T09:59:51.431Z,5.10
2023-05-20T10:02:38.198Z,4.78
2023-05-20T10:05:37.782Z,4.88
2023-05-20T10:08:29.018Z,5.25
2023-05-20T10:11:35.511Z,4.97
2023-05-20T10:14:50.443Z,4.20
2023-05-20T10:18:01.599Z,4.55
2023-05-20T10:20:51.355Z,5.60
2023-05-20T10:23:37.428Z,4.43
2023-05-20T10:26:22.850Z,4.47
2023-05-20T10:29:22.685Z,4.40
2023-05-20T10:32:08.509Z,4.30
2023-05-20T10:35:09.159Z,3.60
2023-05-20T10:38:07.393Z,4.47
2023-05-20T10:40:53.356Z,4.28
2023-05-20T10:43:38.899Z,4.35
2023-05-20T10:46:34.004Z,4.13
2023-05-20T10:49:24.036Z,3.45
2023-05-20T10:52:13.700Z,3.30
2023-05-20T10:55:00.974Z,3.55
2023-05-20T10:57:46.890Z,3.92
2023-05-20T11:00:36.433Z,4.35
2023-05-20T11:03:23.362Z,3.53
2023-05-20T11:06:18.558Z,3.50
2023-05-20T11:09:07.902Z,3.47
2023-05-20T11:11:55.213Z,3.85
2023-05-20T11:14:41.276Z,3.20
2023-05-20T11:17:26.710Z,3.17
2023-05-20T11:20:15.101Z,2.90
2023-05-20T11:23:01.091Z,3.05
2023-05-20T11:25:47.128Z,3.40
2023-05-20T11:28:33.440Z,3.88
2023-05-20T11:31:19.505Z,3.88
2023-05-20T11:34:05.845Z,3.95
2023-05-20T11:36:58.530Z,3.28
2023-05-20T11:39:44.454Z,3.65
2023-05-20T11:42:32.750Z,2.97
2023-05-20T11:45:18.905Z,2.80
2023-05-20T11:48:06.323Z,2.63
2023-05-20T11:50:54.070Z,3.00
2023-05-20T11:53:41.743Z,2.85
2023-05-20T11:56:30.412Z,2.60
2023-05-20T11:59:16.006Z,2.38
2023-05-20T12:02:01.265Z,2.40
2023-05-20T12:04:46.631Z,2.50
2023-05-20T12:07:31.968Z,2.83
2023-05-20T12:10:17.395Z,2.55
2023-05-20T12:13:03.364Z,3.47
2023-05-20T12:15:48.959Z,2.83
2023-05-20T12:18:34.728Z,3.08
2023-05-20T12:21:20.261Z,2.83
2023-05-20T12:24:07.202Z,3.00
2023-05-20T12:26:52.610Z,2.65
2023-05-20T12:29:37.783Z,2.80
2023-05-20T12:32:23.952Z,2.40
2023-05-20T12:35:10.837Z,3.45
2023-05-20T12:37:56.463Z,2.60
2023-05-20T12:40:41.799Z,2.63
2023-05-20T12:43:27.607Z,2.85
2023-05-20T12:46:12.965Z,2.72
2023-05-20T12:48:58.651Z,2.17
2023-05-20T12:51:44.409Z,2.47
2023-05-20T12:54:30.273Z,2.72
2023-05-20T12:57:16.623Z,3.05
2023-05-20T13:00:02.113Z,2.75
2023-05-20T13:02:48.283Z,2.90
2023-05-20T13:05:34.208Z,3.55
2023-05-20T13:08:19.742Z,2.97
2023-05-20T13:11:05.404Z,2.70
2023-05-20T13:13:50.933Z,2.17
2023-05-20T13:16:36.635Z,2.70
2023-05-20T13:19:23.311Z,2.50
2023-05-20T13:22:11.854Z,2.60
2023-05-20T13:24:57.548Z,2.70
2023-05-20T13:27:43.014Z,2.58
2023-05-20T13:30:28.689Z,3.30
2023-05-20T13:33:14.172Z,2.50
2023-05-20T13:36:00.560Z,3.10
2023-05-20T13:38:46.085Z,2.22
2023-05-20T13:41:32.366Z,2.53
2023-05-20T13:44:18.160Z,3.03
2023-05-20T13:47:04.008Z,2.28
2023-05-20T13:49:49.481Z,2.80
2023-05-20T13:52:34.945Z,2.42
2023-05-20T13:55:21.217Z,2.67
2023-05-20T13:58:10.593Z,2.80
2023-05-20T14:00:56.999Z,2.42
2023-05-20T14:03:42.835Z,2.90
2023-05-20T14:06:29.395Z,9.85
2023-05-20T14:09:15.272Z,17.10
2023-05-20T14:12:01.180Z,2.53
2023-05-20T14:14:46.598Z,3.00
2023-05-20T14:17:32.453Z,2.47
2023-05-20T14:20:17.845Z,2.10
2023-05-20T14:23:03.493Z,2.70
2023-05-20T14:25:49.012Z,2.25
2023-05-20T14:28:34.696Z,2.10
2023-05-20T14:31:21.075Z,2.30
2023-05-20T14:34:06.960Z,2.10
2023-05-20T14:36:53.299Z,2.53
2023-05-20T14:39:39.647Z,2.70
2023-05-20T14:42:25.587Z,2.45
2023-05-20T14:45:11.551Z,3.47
2023-05-20T14:47:57.265Z,2.90
2023-05-20T14:50:42.743Z,4.75
2023-05-20T14:53:28.490Z,3.58
2023-05-20T14:56:13.718Z,3.47
2023-05-20T14:58:59.289Z,4.18
2023-05-20T15:01:44.868Z,3.67
2023-05-20T15:04:30.472Z,2.60
2023-05-20T15:07:15.906Z,2.75
2023-05-20T15:10:01.428Z,3.25
2023-05-20T15:12:46.780Z,3.35
2023-05-20T15:15:33.702Z,2.20
2023-05-20T15:18:18.821Z,3.92
2023-05-20T15:21:04.905Z,4.13
2023-05-20T15:23:50.483Z,4.47
2023-05-20T15:26:36.245Z,4.00
2023-05-20T15:29:22.109Z,2.35
2023-05-20T15:32:07.580Z,2.88
2023-05-20T15:34:53.128Z,2.85
2023-05-20T15:37:38.613Z,3.28
2023-05-20T15:40:24.078Z,2.42
2023-05-20T15:43:09.727Z,2.42
2023-05-20T15:45:55.364Z,2.30
2023-05-20T15:48:41.184Z,2.58
2023-05-20T15:51:26.935Z,2.25
2023-05-20T15:54:12.437Z,2.20
2023-05-20T15:56:58.133Z,2.65
2023-05-20T15:59:43.712Z,3.22
2023-05-20T16:02:31.933Z,2.10
2023-05-20T16:05:18.337Z,2.03
2023-05-20T16:08:03.782Z,2.15
2023-05-20T16:10:50.464Z,2.17
2023-05-20T16:13:36.300Z,2.22
2023-05-20T16:16:21.624Z,2.25
2023-05-20T16:19:07.008Z,3.03
2023-05-20T16:21:52.400Z,2.58
2023-05-20T16:24:38.105Z,2.58
2023-05-20T16:27:23.469Z,2.67
2023-05-20T16:30:09.714Z,1.73
2023-05-20T16:32:55.086Z,2.17
2023-05-20T16:35:40.550Z,2.20
2023-05-20T16:38:26.255Z,2.10
2023-05-20T16:41:11.594Z,2.60
2023-05-20T16:43:57.015Z,2.78
2023-05-20T16:46:42.822Z,1.95
2023-05-20T16:49:28.627Z,2.03
2023-05-20T16:52:13.832Z,2.03
2023-05-20T16:55:03.850Z,2.00
2023-05-20T16:57:50.564Z,2.35
2023-05-20T17:00:36.170Z,2.03
2023-05-20T17:03:22.138Z,2.83
2023-05-20T17:06:09.368Z,2.38
2023-05-20T17:08:55.163Z,2.20
2023-05-20T17:11:41.132Z,2.33
2023-05-20T17:14:26.830Z,2.25
2023-05-20T17:17:14.008Z,2.33
2023-05-20T17:19:59.518Z,2.90
2023-05-20T17:22:44.924Z,2.20
2023-05-20T17:25:30.533Z,3.45
2023-05-20T17:28:15.724Z,2.60
2023-05-20T17:31:01.392Z,3.28
2023-05-20T17:33:46.989Z,3.22
2023-05-20T17:36:32.756Z,2.70
2023-05-20T17:39:18.322Z,2.45
2023-05-20T17:42:03.758Z,2.45
2023-05-20T17:44:49.452Z,3.83
2023-05-20T17:47:34.936Z,4.05
2023-05-20T17:50:20.579Z,4.00
2023-05-20T17:53:06.516Z,2.75
2023-05-20T17:55:51.737Z,2.17
2023-05-20T17:58:37.439Z,2.13
2023-05-20T18:01:23.427Z,3.60
2023-05-20T18:04:09.679Z,2.10
2023-05-20T18:06:54.983Z,2.13
2023-05-20T18:09:40.521Z,2.63
2023-05-20T18:12:25.735Z,2.55
2023-05-20T18:15:13.932Z,2.22
2023-05-20T18:17:59.705Z,2.22
2023-05-20T18:20:45.411Z,2.53
2023-05-20T18:23:31.001Z,2.60
2023-05-20T18:26:17.089Z,2.05
2023-05-20T18:29:03.569Z,2.70
2023-05-20T18:31:49.267Z,2.45
2023-05-20T18:34:34.855Z,1.92
2023-05-20T18:37:20.541Z,2.13
2023-05-20T18:40:07.020Z,1.95
2023-05-20T18:42:52.528Z,1.90
2023-05-20T18:45:38.058Z,2.00
2023-05-20T18:48:27.022Z,1.80
2023-05-20T18:51:12.994Z,1.95
2023-05-20T18:53:58.758Z,1.85
2023-05-20T18:56:44.744Z,1.88
2023-05-20T18:59:31.254Z,2.03
2023-05-20T19:02:17.500Z,1.58
2023-05-20T19:05:03.161Z,1.80
2023-05-20T19:07:48.726Z,1.98
2023-05-20T19:10:34.238Z,2.00
2023-05-20T19:13:19.790Z,1.60
2023-05-20T19:16:05.657Z,2.13
2023-05-20T19:18:51.475Z,1.77
2023-05-20T19:21:39.394Z,1.83
2023-05-20T19:24:24.943Z,2.15
2023-05-20T19:27:10.493Z,2.17
2023-05-20T19:29:56.066Z,1.55
2023-05-20T19:32:41.990Z,1.90
2023-05-20T19:35:27.872Z,1.77
2023-05-20T19:38:13.653Z,1.63
2023-05-20T19:40:58.939Z,2.10
2023-05-20T19:43:44.697Z,2.00
2023-05-20T19:46:30.523Z,1.30
2023-05-20T19:49:16.488Z,2.00
2023-05-20T19:52:02.042Z,2.50
2023-05-20T19:54:47.835Z,1.90
2023-05-20T19:57:33.214Z,2.17
2023-05-20T20:00:19.503Z,2.08
2023-05-20T20:03:07.261Z,1.92
2023-05-20T20:05:53.070Z,1.63
2023-05-20T20:08:39.481Z,1.95
2023-05-20T20:11:25.071Z,2.03
2023-05-20T20:14:10.878Z,1.80
2023-05-20T20:16:57.536Z,1.42
2023-05-20T20:19:47.991Z,1.95
2023-05-20T20:22:33.321Z,2.42
2023-05-20T20:25:20.368Z,1.90
2023-05-20T20:28:07.613Z,2.58
2023-05-20T20:30:53.667Z,2.45
2023-05-20T20:33:39.492Z,2.22
2023-05-20T20:36:25.293Z,1.90
2023-05-20T20:39:15.295Z,3.33
2023-05-20T20:42:02.953Z,2.05
2023-05-20T20:44:48.860Z,2.00
2023-05-20T20:47:34.685Z,3.13
2023-05-20T20:50:21.688Z,2.53
2023-05-20T20:53:08.372Z,2.78
2023-05-20T20:55:54.183Z,2.55
2023-05-20T20:58:39.901Z,2.40
2023-05-20T21:01:25.834Z,2.00
2023-05-20T21:04:14.324Z,1.90
2023-05-20T21:07:02.016Z,2.40
2023-05-20T21:09:49.816Z,2.15
2023-05-20T21:12:35.572Z,2.47
2023-05-20T21:15:21.018Z,2.20
2023-05-20T21:18:06.819Z,2.00
2023-05-20T21:20:53.756Z,2.22
2023-05-20T21:23:39.723Z,3.17
2023-05-20T21:26:25.763Z,3.03
2023-05-20T21:29:12.180Z,2.25
2023-05-20T21:31:58.115Z,2.20
2023-05-20T21:34:43.992Z,2.40
2023-05-20T21:37:29.660Z,2.38
2023-05-20T21:40:14.821Z,2.60
2023-05-20T21:43:00.596Z,1.88
2023-05-20T21:45:46.297Z,2.20
2023-05-20T21:48:31.814Z,2.13
2023-05-20T21:51:17.246Z,2.33
2023-05-20T21:54:02.738Z,2.10
2023-05-20T21:56:48.240Z,2.28
2023-05-20T21:59:33.766Z,2.28
2023-05-20T22:02:19.311Z,2.20
2023-05-20T22:05:05.268Z,2.10
2023-05-20T22:07:51.473Z,2.30
2023-05-20T22:10:36.957Z,2.30
2023-05-20T22:13:26.071Z,2.30
2023-05-20T22:16:11.506Z,2.28
2023-05-20T22:18:57.281Z,1.83
2023-05-20T22:21:50.320Z,2.08
2023-05-20T22:24:36.595Z,2.15
2023-05-20T22:27:22.243Z,2.65
2023-05-20T22:30:08.530Z,3.30
2023-05-20T22:32:54.053Z,2.15
2023-05-20T22:35:39.651Z,2.00
2023-05-20T22:38:24.962Z,2.00
2023-05-20T22:41:10.825Z,2.00
2023-05-20T22:43:59.395Z,2.20
2023-05-20T22:46:44.611Z,1.88
2023-05-20T22:49:30.066Z,2.10
2023-05-20T22:52:15.672Z,1.90
2023-05-20T22:55:01.286Z,2.03
2023-05-20T22:57:46.803Z,2.10
2023-05-20T23:00:32.243Z,2.03
2023-05-20T23:03:17.680Z,2.78
2023-05-20T23:06:03.676Z,2.25
2023-05-20T23:08:49.306Z,2.10
2023-05-20T23:11:34.750Z,2.47
2023-05-20T23:14:20.466Z,2.05
2023-05-20T23:17:06.137Z,2.33
2023-05-20T23:19:51.748Z,2.15
2023-05-20T23:22:38.058Z,3.33
2023-05-20T23:25:26.444Z,2.45
2023-05-20T23:28:12.150Z,1.85
2023-05-20T23:30:57.801Z,2.33
2023-05-20T23:33:43.739Z,2.00
2023-05-20T23:36:29.777Z,1.95
2023-05-20T23:39:17.512Z,2.47
2023-05-20T23:42:04.216Z,2.58
2023-05-20T23:44:49.366Z,2.30
2023-05-20T23:47:36.446Z,2.25
2023-05-20T23:50:22.088Z,2.13
2023-05-20T23:53:07.417Z,2.33
2023-05-20T23:55:52.936Z,2.90
2023-05-20T23:58:38.568Z,2.05
